sensor_id;sensor_type;location;lat;lon;timestamp;pressure;altitude;pressure_sealevel;temperature;humidity
70302;BME280;57706;56.326;43.882;2023-06-24T00:00:09;100290.06;;;15.83;68.17
70302;BME280;57706;56.326;43.882;2023-06-24T00:02:38;100284.53;;;15.85;67.86
70302;BME280;57706;56.326;43.882;2023-06-24T00:05:05;100272.88;;;15.72;67.44
70302;BME280;57706;56.326;43.882;2023-06-24T00:07:32;100276.34;;;15.73;67.74
70302;BME280;57706;56.326;43.882;2023-06-24T00:10:01;100273.09;;;15.71;67.54
70302;BME280;57706;56.326;43.882;2023-06-24T00:12:35;100273.50;;;15.67;67.42
70302;BME280;57706;56.326;43.882;2023-06-24T00:15:00;100270.00;;;15.67;68.56
70302;BME280;57706;56.326;43.882;2023-06-24T00:17:27;100269.59;;;15.63;68.39
70302;BME280;57706;56.326;43.882;2023-06-24T00:19:53;100257.19;;;15.64;67.86
70302;BME280;57706;56.326;43.882;2023-06-24T00:22:20;100257.38;;;15.62;65.68
70302;BME280;57706;56.326;43.882;2023-06-24T00:24:47;100257.59;;;15.67;65.29
70302;BME280;57706;56.326;43.882;2023-06-24T00:27:13;100257.41;;;15.76;63.88
70302;BME280;57706;56.326;43.882;2023-06-24T00:29:39;100254.75;;;15.76;63.55
70302;BME280;57706;56.326;43.882;2023-06-24T00:32:05;100257.19;;;15.71;65.96
70302;BME280;57706;56.326;43.882;2023-06-24T00:34:31;100250.44;;;15.68;65.79
70302;BME280;57706;56.326;43.882;2023-06-24T00:36:57;100246.22;;;15.74;64.19
70302;BME280;57706;56.326;43.882;2023-06-24T00:39:23;100240.09;;;15.73;64.27
70302;BME280;57706;56.326;43.882;2023-06-24T00:41:49;100241.72;;;15.74;63.76
70302;BME280;57706;56.326;43.882;2023-06-24T00:44:15;100250.69;;;15.73;67.54
70302;BME280;57706;56.326;43.882;2023-06-24T00:46:42;100250.25;;;15.69;66.01
70302;BME280;57706;56.326;43.882;2023-06-24T00:49:09;100247.78;;;15.68;66.38
70302;BME280;57706;56.326;43.882;2023-06-24T00:51:39;100251.50;;;15.74;67.74
70302;BME280;57706;56.326;43.882;2023-06-24T00:54:05;100247.00;;;15.74;67.84
70302;BME280;57706;56.326;43.882;2023-06-24T00:56:34;100244.59;;;15.79;65.71
70302;BME280;57706;56.326;43.882;2023-06-24T00:59:04;100244.97;;;15.76;69.67
70302;BME280;57706;56.326;43.882;2023-06-24T01:01:34;100240.50;;;15.83;66.10
70302;BME280;57706;56.326;43.882;2023-06-24T01:04:02;100245.00;;;15.83;64.42
70302;BME280;57706;56.326;43.882;2023-06-24T01:06:30;100247.03;;;15.88;64.63
70302;BME280;57706;56.326;43.882;2023-06-24T01:08:58;100240.31;;;15.85;63.05
70302;BME280;57706;56.326;43.882;2023-06-24T01:11:26;100239.91;;;15.88;63.32
70302;BME280;57706;56.326;43.882;2023-06-24T01:13:54;100249.06;;;15.79;63.10
70302;BME280;57706;56.326;43.882;2023-06-24T01:16:42;100239.28;;;15.86;62.24
70302;BME280;57706;56.326;43.882;2023-06-24T01:22:24;100239.97;;;15.95;61.03
70302;BME280;57706;56.326;43.882;2023-06-24T01:28:19;100248.25;;;15.85;62.78
70302;BME280;57706;56.326;43.882;2023-06-24T01:36:34;100255.66;;;16.03;62.23
70302;BME280;57706;56.326;43.882;2023-06-24T01:39:04;100254.44;;;16.06;62.41
70302;BME280;57706;56.326;43.882;2023-06-24T01:41:36;100251.78;;;16.06;61.72
70302;BME280;57706;56.326;43.882;2023-06-24T01:44:09;100248.50;;;16.04;61.96
70302;BME280;57706;56.326;43.882;2023-06-24T01:46:38;100245.47;;;16.07;61.90
70302;BME280;57706;56.326;43.882;2023-06-24T01:49:07;100247.09;;;16.15;60.62
70302;BME280;57706;56.326;43.882;2023-06-24T01:51:37;100240.59;;;16.17;61.47
70302;BME280;57706;56.326;43.882;2023-06-24T01:54:07;100241.81;;;16.15;63.16
70302;BME280;57706;56.326;43.882;2023-06-24T01:56:36;100241.81;;;16.08;60.98
70302;BME280;57706;56.326;43.882;2023-06-24T01:59:04;100246.69;;;16.11;59.93
70302;BME280;57706;56.326;43.882;2023-06-24T02:01:32;100243.44;;;16.22;59.69
70302;BME280;57706;56.326;43.882;2023-06-24T02:04:01;100241.81;;;16.21;59.86
70302;BME280;57706;56.326;43.882;2023-06-24T02:06:28;100245.47;;;16.14;59.71
70302;BME280;57706;56.326;43.882;2023-06-24T02:08:58;100239.16;;;16.28;58.57
70302;BME280;57706;56.326;43.882;2023-06-24T02:11:25;100239.16;;;16.28;58.86
70302;BME280;57706;56.326;43.882;2023-06-24T02:13:55;100239.97;;;16.22;58.91
70302;BME280;57706;56.326;43.882;2023-06-24T02:16:22;100236.91;;;16.18;58.99
70302;BME280;57706;56.326;43.882;2023-06-24T02:18:49;100242.63;;;16.29;59.26
70302;BME280;57706;56.326;43.882;2023-06-24T02:21:18;100253.03;;;16.37;58.55
70302;BME280;57706;56.326;43.882;2023-06-24T02:23:46;100252.41;;;16.35;58.59
70302;BME280;57706;56.326;43.882;2023-06-24T02:26:14;100255.28;;;16.40;58.27
70302;BME280;57706;56.326;43.882;2023-06-24T02:28:43;100260.56;;;16.27;59.42
70302;BME280;57706;56.326;43.882;2023-06-24T02:31:10;100258.94;;;16.26;58.31
70302;BME280;57706;56.326;43.882;2023-06-24T02:33:38;100261.81;;;16.10;59.26
70302;BME280;57706;56.326;43.882;2023-06-24T02:36:04;100265.25;;;16.11;58.74
70302;BME280;57706;56.326;43.882;2023-06-24T02:38:30;100265.84;;;16.00;59.99
70302;BME280;57706;56.326;43.882;2023-06-24T02:40:56;100271.13;;;15.93;60.41
70302;BME280;57706;56.326;43.882;2023-06-24T02:43:22;100268.69;;;15.91;61.32
70302;BME280;57706;56.326;43.882;2023-06-24T02:45:48;100274.34;;;15.75;61.35
70302;BME280;57706;56.326;43.882;2023-06-24T02:48:17;100276.41;;;15.93;61.91
70302;BME280;57706;56.326;43.882;2023-06-24T02:50:46;100272.34;;;15.90;62.74
70302;BME280;57706;56.326;43.882;2023-06-24T02:53:14;100279.31;;;16.05;62.35
70302;BME280;57706;56.326;43.882;2023-06-24T02:55:41;100272.41;;;16.17;62.89
70302;BME280;57706;56.326;43.882;2023-06-24T02:58:08;100277.09;;;16.29;62.79
70302;BME280;57706;56.326;43.882;2023-06-24T03:00:45;100264.25;;;16.32;63.47
70302;BME280;57706;56.326;43.882;2023-06-24T03:03:31;100275.69;;;16.33;62.88
70302;BME280;57706;56.326;43.882;2023-06-24T03:05:58;100268.75;;;16.32;64.51
70302;BME280;57706;56.326;43.882;2023-06-24T03:08:28;100274.84;;;16.26;64.16
70302;BME280;57706;56.326;43.882;2023-06-24T03:10:56;100275.25;;;16.09;64.80
70302;BME280;57706;56.326;43.882;2023-06-24T03:13:25;100274.41;;;16.02;65.98
70302;BME280;57706;56.326;43.882;2023-06-24T03:16:03;100278.09;;;16.01;65.93
70302;BME280;57706;56.326;43.882;2023-06-24T03:18:34;100288.28;;;16.04;65.92
70302;BME280;57706;56.326;43.882;2023-06-24T03:21:00;100271.97;;;16.00;66.90
70302;BME280;57706;56.326;43.882;2023-06-24T03:23:28;100283.72;;;15.77;67.93
70302;BME280;57706;56.326;43.882;2023-06-24T03:25:54;100282.47;;;15.66;68.31
70302;BME280;57706;56.326;43.882;2023-06-24T03:28:21;100274.09;;;15.69;68.56
70302;BME280;57706;56.326;43.882;2023-06-24T03:30:54;100276.34;;;15.73;68.79
70302;BME280;57706;56.326;43.882;2023-06-24T03:33:20;100280.00;;;15.65;69.40
70302;BME280;57706;56.326;43.882;2023-06-24T03:35:46;100282.00;;;15.56;69.51
70302;BME280;57706;56.326;43.882;2023-06-24T03:38:16;100290.75;;;15.50;69.31
70302;BME280;57706;56.326;43.882;2023-06-24T03:40:42;100280.16;;;15.50;71.00
70302;BME280;57706;56.326;43.882;2023-06-24T03:43:10;100279.50;;;15.48;69.72
70302;BME280;57706;56.326;43.882;2023-06-24T03:45:36;100282.34;;;15.39;69.86
70302;BME280;57706;56.326;43.882;2023-06-24T03:48:03;100288.66;;;15.38;70.72
70302;BME280;57706;56.326;43.882;2023-06-24T03:50:30;100283.31;;;15.32;70.47
70302;BME280;57706;56.326;43.882;2023-06-24T03:52:56;100276.41;;;15.37;69.40
70302;BME280;57706;56.326;43.882;2023-06-24T03:55:22;100280.69;;;15.38;70.10
70302;BME280;57706;56.326;43.882;2023-06-24T03:57:48;100279.22;;;15.22;70.55
70302;BME280;57706;56.326;43.882;2023-06-24T04:00:14;100286.31;;;15.15;71.78
70302;BME280;57706;56.326;43.882;2023-06-24T04:02:46;100289.97;;;15.14;71.37
70302;BME280;57706;56.326;43.882;2023-06-24T04:05:12;100284.84;;;15.12;72.34
70302;BME280;57706;56.326;43.882;2023-06-24T04:07:38;100290.75;;;15.14;71.73
70302;BME280;57706;56.326;43.882;2023-06-24T04:10:05;100287.13;;;15.16;72.23
70302;BME280;57706;56.326;43.882;2023-06-24T04:12:35;100289.50;;;15.04;72.90
70302;BME280;57706;56.326;43.882;2023-06-24T04:15:04;100291.75;;;14.78;74.28
70302;BME280;57706;56.326;43.882;2023-06-24T04:17:33;100283.50;;;14.66;75.02
70302;BME280;57706;56.326;43.882;2023-06-24T04:20:00;100278.53;;;14.56;75.67
70302;BME280;57706;56.326;43.882;2023-06-24T04:22:26;100280.66;;;14.61;74.90
70302;BME280;57706;56.326;43.882;2023-06-24T04:24:56;100275.41;;;14.68;74.89
70302;BME280;57706;56.326;43.882;2023-06-24T04:27:23;100275.41;;;14.68;75.20
70302;BME280;57706;56.326;43.882;2023-06-24T04:29:50;100271.72;;;14.69;74.97
70302;BME280;57706;56.326;43.882;2023-06-24T04:32:16;100265.56;;;14.62;74.66
70302;BME280;57706;56.326;43.882;2023-06-24T04:34:43;100260.69;;;14.58;75.11
70302;BME280;57706;56.326;43.882;2023-06-24T04:37:09;100267.22;;;14.63;75.42
70302;BME280;57706;56.326;43.882;2023-06-24T04:39:35;100270.47;;;14.65;75.37
70302;BME280;57706;56.326;43.882;2023-06-24T04:42:01;100264.09;;;14.52;76.97
70302;BME280;57706;56.326;43.882;2023-06-24T04:44:27;100267.34;;;14.54;76.86
70302;BME280;57706;56.326;43.882;2023-06-24T04:46:53;100271.19;;;14.52;76.93
70302;BME280;57706;56.326;43.882;2023-06-24T04:49:19;100271.28;;;14.37;76.71
70302;BME280;57706;56.326;43.882;2023-06-24T04:51:45;100276.31;;;14.31;77.62
70302;BME280;57706;56.326;43.882;2023-06-24T04:54:11;100276.00;;;14.41;76.72
70302;BME280;57706;56.326;43.882;2023-06-24T04:56:39;100275.50;;;14.31;77.75
70302;BME280;57706;56.326;43.882;2023-06-24T04:59:06;100284.38;;;14.23;77.70
70302;BME280;57706;56.326;43.882;2023-06-24T05:01:32;100286.78;;;14.18;78.32
70302;BME280;57706;56.326;43.882;2023-06-24T05:03:59;100278.09;;;14.02;78.90
70302;BME280;57706;56.326;43.882;2023-06-24T05:06:25;100271.16;;;14.01;79.28
70302;BME280;57706;56.326;43.882;2023-06-24T05:08:51;100258.84;;;14.09;78.37
70302;BME280;57706;56.326;43.882;2023-06-24T05:11:17;100258.72;;;14.17;78.38
70302;BME280;57706;56.326;43.882;2023-06-24T05:13:43;100251.00;;;14.22;77.41
70302;BME280;57706;56.326;43.882;2023-06-24T05:16:09;100248.19;;;14.24;77.44
70302;BME280;57706;56.326;43.882;2023-06-24T05:18:35;100248.00;;;14.25;78.04
70302;BME280;57706;56.326;43.882;2023-06-24T05:21:01;100244.22;;;14.35;77.76
70302;BME280;57706;56.326;43.882;2023-06-24T05:23:28;100243.47;;;14.41;77.79
70302;BME280;57706;56.326;43.882;2023-06-24T05:25:54;100252.81;;;14.43;78.10
70302;BME280;57706;56.326;43.882;2023-06-24T05:28:19;100252.00;;;14.43;77.67
70302;BME280;57706;56.326;43.882;2023-06-24T05:30:45;100247.78;;;14.49;77.16
70302;BME280;57706;56.326;43.882;2023-06-24T05:33:12;100250.25;;;14.50;77.42
70302;BME280;57706;56.326;43.882;2023-06-24T05:35:38;100256.00;;;14.32;77.63
70302;BME280;57706;56.326;43.882;2023-06-24T05:38:07;100251.44;;;14.48;77.57
70302;BME280;57706;56.326;43.882;2023-06-24T05:40:33;100251.88;;;14.51;77.36
70302;BME280;57706;56.326;43.882;2023-06-24T05:42:59;100251.19;;;14.42;76.57
70302;BME280;57706;56.326;43.882;2023-06-24T05:45:26;100259.31;;;14.41;76.68
70302;BME280;57706;56.326;43.882;2023-06-24T05:47:52;100253.22;;;14.40;76.55
70302;BME280;57706;56.326;43.882;2023-06-24T05:50:18;100255.72;;;14.49;75.92
70302;BME280;57706;56.326;43.882;2023-06-24T05:52:44;100260.97;;;14.42;76.28
70302;BME280;57706;56.326;43.882;2023-06-24T05:55:10;100262.16;;;14.39;75.63
70302;BME280;57706;56.326;43.882;2023-06-24T05:57:36;100255.66;;;14.42;75.90
70302;BME280;57706;56.326;43.882;2023-06-24T06:00:02;100257.78;;;14.53;75.83
70302;BME280;57706;56.326;43.882;2023-06-24T06:02:38;100261.16;;;14.69;75.27
70302;BME280;57706;56.326;43.882;2023-06-24T06:05:04;100261.66;;;14.79;75.18
70302;BME280;57706;56.326;43.882;2023-06-24T06:07:30;100249.59;;;15.05;74.52
70302;BME280;57706;56.326;43.882;2023-06-24T06:09:56;100245.97;;;15.13;74.34
70302;BME280;57706;56.326;43.882;2023-06-24T06:12:22;100247.25;;;15.24;73.74
70302;BME280;57706;56.326;43.882;2023-06-24T06:14:48;100237.91;;;15.28;72.83
70302;BME280;57706;56.326;43.882;2023-06-24T06:17:14;100245.59;;;15.23;73.18
70302;BME280;57706;56.326;43.882;2023-06-24T06:19:40;100236.75;;;15.44;72.61
70302;BME280;57706;56.326;43.882;2023-06-24T06:22:07;100237.19;;;15.61;71.78
70302;BME280;57706;56.326;43.882;2023-06-24T06:24:34;100229.91;;;15.77;71.41
70302;BME280;57706;56.326;43.882;2023-06-24T06:27:00;100219.31;;;15.77;70.72
70302;BME280;57706;56.326;43.882;2023-06-24T06:29:26;100230.38;;;16.07;70.57
70302;BME280;57706;56.326;43.882;2023-06-24T06:31:52;100227.94;;;16.19;70.25
70302;BME280;57706;56.326;43.882;2023-06-24T06:34:19;100234.06;;;16.20;70.29
70302;BME280;57706;56.326;43.882;2023-06-24T06:36:45;100238.06;;;15.82;71.20
70302;BME280;57706;56.326;43.882;2023-06-24T06:39:11;100238.81;;;15.55;71.56
70302;BME280;57706;56.326;43.882;2023-06-24T06:41:37;100236.31;;;15.40;72.75
70302;BME280;57706;56.326;43.882;2023-06-24T06:44:03;100241.78;;;15.32;72.70
70302;BME280;57706;56.326;43.882;2023-06-24T06:46:29;100243.19;;;15.28;72.58
70302;BME280;57706;56.326;43.882;2023-06-24T06:48:55;100242.41;;;15.34;71.96
70302;BME280;57706;56.326;43.882;2023-06-24T06:51:22;100243.75;;;15.17;72.58
70302;BME280;57706;56.326;43.882;2023-06-24T06:53:50;100241.81;;;14.97;73.23
70302;BME280;57706;56.326;43.882;2023-06-24T06:56:33;100244.31;;;15.05;74.32
70302;BME280;57706;56.326;43.882;2023-06-24T06:58:59;100250.13;;;15.29;72.66
70302;BME280;57706;56.326;43.882;2023-06-24T07:01:25;100241.56;;;15.34;72.40
70302;BME280;57706;56.326;43.882;2023-06-24T07:03:51;100241.97;;;15.31;71.77
70302;BME280;57706;56.326;43.882;2023-06-24T07:06:20;100247.28;;;15.31;72.83
70302;BME280;57706;56.326;43.882;2023-06-24T07:08:46;100249.69;;;15.25;72.78
70302;BME280;57706;56.326;43.882;2023-06-24T07:11:12;100251.38;;;15.40;72.37
70302;BME280;57706;56.326;43.882;2023-06-24T07:13:38;100250.06;;;15.16;72.95
70302;BME280;57706;56.326;43.882;2023-06-24T07:16:04;100249.13;;;14.95;74.35
70302;BME280;57706;56.326;43.882;2023-06-24T07:18:30;100266.97;;;14.57;75.00
70302;BME280;57706;56.326;43.882;2023-06-24T07:20:56;100282.88;;;14.36;77.06
70302;BME280;57706;56.326;43.882;2023-06-24T07:23:22;100287.47;;;13.68;80.91
70302;BME280;57706;56.326;43.882;2023-06-24T07:25:48;100288.59;;;13.29;82.80
70302;BME280;57706;56.326;43.882;2023-06-24T07:28:14;100268.84;;;12.94;83.65
70302;BME280;57706;56.326;43.882;2023-06-24T07:30:40;100269.13;;;13.00;85.05
70302;BME280;57706;56.326;43.882;2023-06-24T07:33:07;100272.03;;;13.05;85.53
70302;BME280;57706;56.326;43.882;2023-06-24T07:35:33;100267.19;;;13.08;85.70
70302;BME280;57706;56.326;43.882;2023-06-24T07:38:00;100266.94;;;13.18;85.15
70302;BME280;57706;56.326;43.882;2023-06-24T07:40:26;100271.75;;;13.30;85.40
70302;BME280;57706;56.326;43.882;2023-06-24T07:42:53;100275.75;;;13.26;84.94
70302;BME280;57706;56.326;43.882;2023-06-24T07:45:19;100271.84;;;13.21;85.22
70302;BME280;57706;56.326;43.882;2023-06-24T07:47:45;100279.75;;;13.21;85.12
70302;BME280;57706;56.326;43.882;2023-06-24T07:50:11;100281.03;;;13.11;84.66
70302;BME280;57706;56.326;43.882;2023-06-24T07:52:37;100289.47;;;13.06;84.46
70302;BME280;57706;56.326;43.882;2023-06-24T07:55:03;100277.03;;;13.00;85.09
70302;BME280;57706;56.326;43.882;2023-06-24T07:57:30;100285.84;;;13.07;84.88
70302;BME280;57706;56.326;43.882;2023-06-24T07:59:56;100287.97;;;13.12;83.98
70302;BME280;57706;56.326;43.882;2023-06-24T08:02:22;100294.59;;;13.22;83.71
70302;BME280;57706;56.326;43.882;2023-06-24T08:04:50;100288.59;;;13.29;84.42
70302;BME280;57706;56.326;43.882;2023-06-24T08:07:16;100285.38;;;13.33;82.22
70302;BME280;57706;56.326;43.882;2023-06-24T08:09:42;100287.94;;;13.42;82.12
70302;BME280;57706;56.326;43.882;2023-06-24T08:12:08;100290.84;;;13.32;82.12
70302;BME280;57706;56.326;43.882;2023-06-24T08:14:34;100292.13;;;13.36;80.55
70302;BME280;57706;56.326;43.882;2023-06-24T08:17:01;100296.78;;;13.34;81.54
70302;BME280;57706;56.326;43.882;2023-06-24T08:19:27;100292.75;;;13.38;81.89
70302;BME280;57706;56.326;43.882;2023-06-24T08:21:54;100291.69;;;13.47;81.51
70302;BME280;57706;56.326;43.882;2023-06-24T08:24:20;100283.97;;;13.46;81.45
70302;BME280;57706;56.326;43.882;2023-06-24T08:26:46;100295.84;;;13.57;81.78
70302;BME280;57706;56.326;43.882;2023-06-24T08:29:12;100286.34;;;13.77;81.45
70302;BME280;57706;56.326;43.882;2023-06-24T08:31:38;100284.50;;;13.93;80.12
70302;BME280;57706;56.326;43.882;2023-06-24T08:34:04;100288.88;;;13.86;79.55
70302;BME280;57706;56.326;43.882;2023-06-24T08:36:31;100287.75;;;13.95;79.24
70302;BME280;57706;56.326;43.882;2023-06-24T08:38:57;100282.22;;;14.12;79.96
70302;BME280;57706;56.326;43.882;2023-06-24T08:41:24;100284.25;;;14.10;79.66
70302;BME280;57706;56.326;43.882;2023-06-24T08:43:55;100295.44;;;14.12;78.73
70302;BME280;57706;56.326;43.882;2023-06-24T08:46:24;100286.97;;;14.38;79.05
70302;BME280;57706;56.326;43.882;2023-06-24T08:48:57;100289.78;;;14.37;78.89
70302;BME280;57706;56.326;43.882;2023-06-24T08:51:27;100297.19;;;14.48;77.76
70302;BME280;57706;56.326;43.882;2023-06-24T08:53:55;100300.97;;;14.61;77.47
70302;BME280;57706;56.326;43.882;2023-06-24T08:56:22;100292.34;;;15.02;77.88
70302;BME280;57706;56.326;43.882;2023-06-24T08:58:48;100293.66;;;15.20;75.33
70302;BME280;57706;56.326;43.882;2023-06-24T09:01:14;100297.00;;;15.35;75.43
70302;BME280;57706;56.326;43.882;2023-06-24T09:03:40;100307.69;;;15.62;74.19
70302;BME280;57706;56.326;43.882;2023-06-24T09:06:06;100300.41;;;15.71;73.22
70302;BME280;57706;56.326;43.882;2023-06-24T09:08:32;100296.47;;;15.53;72.73
70302;BME280;57706;56.326;43.882;2023-06-24T09:11:01;100287.84;;;15.93;72.23
70302;BME280;57706;56.326;43.882;2023-06-24T09:13:36;100287.06;;;16.00;71.13
70302;BME280;57706;56.326;43.882;2023-06-24T09:16:13;100287.47;;;16.10;71.09
70302;BME280;57706;56.326;43.882;2023-06-24T09:18:39;100288.75;;;16.61;69.59
70302;BME280;57706;56.326;43.882;2023-06-24T09:21:05;100298.00;;;17.38;67.89
70302;BME280;57706;56.326;43.882;2023-06-24T09:23:37;100298.63;;;17.79;64.64
70302;BME280;57706;56.326;43.882;2023-06-24T09:26:03;100292.41;;;17.99;64.23
70302;BME280;57706;56.326;43.882;2023-06-24T09:28:29;100308.69;;;18.41;63.87
70302;BME280;57706;56.326;43.882;2023-06-24T09:31:09;100306.72;;;19.06;61.56
70302;BME280;57706;56.326;43.882;2023-06-24T09:33:35;100298.97;;;19.73;59.83
70302;BME280;57706;56.326;43.882;2023-06-24T09:36:02;100303.16;;;19.99;57.80
70302;BME280;57706;56.326;43.882;2023-06-24T09:38:36;100301.63;;;20.94;56.36
70302;BME280;57706;56.326;43.882;2023-06-24T09:41:03;100294.78;;;21.51;53.51
70302;BME280;57706;56.326;43.882;2023-06-24T09:43:36;100296.75;;;22.31;50.51
70302;BME280;57706;56.326;43.882;2023-06-24T09:46:03;100299.00;;;22.39;50.61
70302;BME280;57706;56.326;43.882;2023-06-24T09:48:30;100295.75;;;23.55;47.68
70302;BME280;57706;56.326;43.882;2023-06-24T09:50:59;100285.50;;;24.40;44.80
70302;BME280;57706;56.326;43.882;2023-06-24T09:53:34;100276.25;;;24.58;43.69
70302;BME280;57706;56.326;43.882;2023-06-24T09:56:01;100281.84;;;24.99;43.09
70302;BME280;57706;56.326;43.882;2023-06-24T09:58:31;100284.81;;;25.88;40.90
70302;BME280;57706;56.326;43.882;2023-06-24T10:01:01;100277.44;;;27.53;38.14
70302;BME280;57706;56.326;43.882;2023-06-24T10:03:29;100281.03;;;28.47;35.83
70302;BME280;57706;56.326;43.882;2023-06-24T10:05:55;100278.91;;;27.74;37.80
70302;BME280;57706;56.326;43.882;2023-06-24T10:08:21;100284.19;;;26.95;38.41
70302;BME280;57706;56.326;43.882;2023-06-24T10:10:47;100297.59;;;25.39;40.15
70302;BME280;57706;56.326;43.882;2023-06-24T10:13:13;100291.06;;;25.19;41.19
70302;BME280;57706;56.326;43.882;2023-06-24T10:15:39;100286.78;;;25.23;40.91
70302;BME280;57706;56.326;43.882;2023-06-24T10:20:56;100293.19;;;24.58;41.60
70302;BME280;57706;56.326;43.882;2023-06-24T10:23:22;100287.72;;;25.55;40.12
70302;BME280;57706;56.326;43.882;2023-06-24T10:25:48;100284.78;;;25.77;39.26
70302;BME280;57706;56.326;43.882;2023-06-24T10:28:14;100298.31;;;26.45;38.05
70302;BME280;57706;56.326;43.882;2023-06-24T10:30:39;100293.59;;;28.33;35.53
70302;BME280;57706;56.326;43.882;2023-06-24T10:33:19;100292.25;;;29.08;32.11
70302;BME280;57706;56.326;43.882;2023-06-24T10:35:45;100296.81;;;28.64;33.19
70302;BME280;57706;56.326;43.882;2023-06-24T10:38:11;100297.53;;;27.76;33.46
70302;BME280;57706;56.326;43.882;2023-06-24T10:45:50;100297.25;;;28.47;33.56
70302;BME280;57706;56.326;43.882;2023-06-24T10:48:17;100297.00;;;29.17;32.43
70302;BME280;57706;56.326;43.882;2023-06-24T10:50:47;100304.03;;;28.10;32.85
70302;BME280;57706;56.326;43.882;2023-06-24T10:53:13;100301.22;;;27.40;33.85
70302;BME280;57706;56.326;43.882;2023-06-24T10:55:39;100292.72;;;28.67;33.95
70302;BME280;57706;56.326;43.882;2023-06-24T10:58:12;100287.88;;;29.89;30.47
70302;BME280;57706;56.326;43.882;2023-06-24T11:00:40;100285.72;;;33.44;26.65
70302;BME280;57706;56.326;43.882;2023-06-24T11:03:10;100277.56;;;38.88;21.46
70302;BME280;57706;56.326;43.882;2023-06-24T11:05:40;100259.44;;;37.26;20.89
70302;BME280;57706;56.326;43.882;2023-06-24T11:08:07;100272.03;;;35.14;24.67
70302;BME280;57706;56.326;43.882;2023-06-24T11:10:33;100259.25;;;34.45;25.21
70302;BME280;57706;56.326;43.882;2023-06-24T11:13:05;100273.03;;;31.69;27.66
70302;BME280;57706;56.326;43.882;2023-06-24T11:15:32;100266.63;;;29.83;30.28
70302;BME280;57706;56.326;43.882;2023-06-24T11:17:58;100269.97;;;30.27;30.77
70302;BME280;57706;56.326;43.882;2023-06-24T11:20:27;100270.06;;;32.34;28.17
70302;BME280;57706;56.326;43.882;2023-06-24T11:22:53;100266.69;;;37.06;22.64
70302;BME280;57706;56.326;43.882;2023-06-24T11:25:20;100260.91;;;37.97;20.52
70302;BME280;57706;56.326;43.882;2023-06-24T11:27:50;100268.25;;;33.45;25.51
70302;BME280;57706;56.326;43.882;2023-06-24T11:30:18;100270.78;;;29.75;30.41
70302;BME280;57706;56.326;43.882;2023-06-24T11:32:45;100267.88;;;27.71;33.68
70302;BME280;57706;56.326;43.882;2023-06-24T11:35:12;100284.78;;;26.65;36.19
70302;BME280;57706;56.326;43.882;2023-06-24T11:37:44;100270.78;;;25.75;38.08
70302;BME280;57706;56.326;43.882;2023-06-24T11:40:12;100277.81;;;26.13;37.16
70302;BME280;57706;56.326;43.882;2023-06-24T11:42:39;100278.75;;;27.05;35.44
70302;BME280;57706;56.326;43.882;2023-06-24T11:45:10;100273.06;;;28.32;33.59
70302;BME280;57706;56.326;43.882;2023-06-24T11:47:38;100270.94;;;28.28;33.65
70302;BME280;57706;56.326;43.882;2023-06-24T11:50:05;100275.69;;;28.66;32.70
70302;BME280;57706;56.326;43.882;2023-06-24T11:52:40;100270.72;;;26.89;35.40
70302;BME280;57706;56.326;43.882;2023-06-24T11:55:19;100276.41;;;24.84;39.11
70302;BME280;57706;56.326;43.882;2023-06-24T12:00:16;100286.63;;;22.89;43.12
70302;BME280;57706;56.326;43.882;2023-06-24T12:02:42;100288.44;;;22.32;43.54
70302;BME280;57706;56.326;43.882;2023-06-24T12:05:08;100291.66;;;21.83;43.87
70302;BME280;57706;56.326;43.882;2023-06-24T12:07:34;100277.13;;;21.09;45.56
70302;BME280;57706;56.326;43.882;2023-06-24T12:10:00;100278.63;;;20.45;46.43
70302;BME280;57706;56.326;43.882;2023-06-24T12:12:26;100281.06;;;20.46;47.05
70302;BME280;57706;56.326;43.882;2023-06-24T12:14:52;100281.47;;;20.07;49.15
70302;BME280;57706;56.326;43.882;2023-06-24T12:17:18;100283.56;;;19.07;49.94
70302;BME280;57706;56.326;43.882;2023-06-24T12:19:43;100285.28;;;18.94;50.56
70302;BME280;57706;56.326;43.882;2023-06-24T12:22:09;100283.47;;;18.69;51.27
70302;BME280;57706;56.326;43.882;2023-06-24T12:24:35;100276.72;;;18.92;51.57
70302;BME280;57706;56.326;43.882;2023-06-24T12:27:01;100275.50;;;19.14;49.88
70302;BME280;57706;56.326;43.882;2023-06-24T12:29:27;100271.22;;;19.62;48.62
70302;BME280;57706;56.326;43.882;2023-06-24T12:31:53;100271.88;;;20.06;47.82
70302;BME280;57706;56.326;43.882;2023-06-24T12:34:19;100282.13;;;20.57;46.90
70302;BME280;57706;56.326;43.882;2023-06-24T12:36:46;100279.56;;;20.86;46.19
70302;BME280;57706;56.326;43.882;2023-06-24T12:39:12;100268.50;;;21.07;45.55
70302;BME280;57706;56.326;43.882;2023-06-24T12:41:38;100274.63;;;21.72;44.69
70302;BME280;57706;56.326;43.882;2023-06-24T12:44:04;100264.53;;;22.60;42.36
70302;BME280;57706;56.326;43.882;2023-06-24T12:46:29;100275.03;;;22.83;42.32
70302;BME280;57706;56.326;43.882;2023-06-24T12:48:55;100274.19;;;22.44;42.89
70302;BME280;57706;56.326;43.882;2023-06-24T12:51:22;100269.44;;;21.12;44.74
70302;BME280;57706;56.326;43.882;2023-06-24T12:53:47;100277.69;;;20.27;46.29
70302;BME280;57706;56.326;43.882;2023-06-24T12:56:14;100271.72;;;20.01;46.39
70302;BME280;57706;56.326;43.882;2023-06-24T12:58:40;100261.69;;;20.51;45.66
70302;BME280;57706;56.326;43.882;2023-06-24T13:01:05;100260.63;;;20.76;45.49
70302;BME280;57706;56.326;43.882;2023-06-24T13:03:31;100268.16;;;20.07;46.98